Time;durP1;ratioP1;P1;durP2;ratioP2;P2;SDS_P1;SDS_P2;PMS_P1;PMS_P2;Temp;Humidity;BMP_temperature;BMP_pressure;BME280_temperature;BME280_humidity;BME280_pressure;Samples;Min_cycle;Max_cycle;Signal;HPM_P1;HPM_P2
2021/07/16 00:00:21;;;;;;;2.63;2.30;;;16.90;99.90;;;;;;5035856;28;20029;-79
2021/07/16 00:02:48;;;;;;;5.35;2.10;;;16.80;99.90;;;;;;5053509;28;20033;-80
2021/07/16 00:05:14;;;;;;;4.18;2.38;;;16.80;99.90;;;;;;5036012;28;20425;-81
2021/07/16 00:07:41;;;;;;;5.85;2.20;;;16.70;99.90;;;;;;5035722;28;20467;-81
2021/07/16 00:10:09;;;;;;;3.60;2.58;;;16.70;99.90;;;;;;5035957;28;20472;-82
2021/07/16 00:12:35;;;;;;;4.20;2.42;;;16.70;99.90;;;;;;5035792;28;20060;-82
2021/07/16 00:15:02;;;;;;;3.05;2.50;;;16.80;99.90;;;;;;5035823;28;20421;-81
2021/07/16 00:17:28;;;;;;;3.67;2.47;;;16.80;99.90;;;;;;5035856;28;20095;-81
2021/07/16 00:19:53;;;;;;;3.85;2.55;;;16.70;99.90;;;;;;5035877;28;20021;-82
2021/07/16 00:22:19;;;;;;;2.88;2.22;;;16.70;99.90;;;;;;5035562;28;20047;-82
2021/07/16 00:24:45;;;;;;;2.70;2.28;;;16.70;99.90;;;;;;5035814;28;20021;-82
2021/07/16 00:27:11;;;;;;;4.40;1.98;;;16.70;99.90;;;;;;5035843;28;20025;-81
2021/07/16 00:29:37;;;;;;;5.60;2.70;;;16.70;99.90;;;;;;5035567;28;20491;-81
2021/07/16 00:32:03;;;;;;;3.30;2.88;;;16.60;99.90;;;;;;5035451;28;20111;-81
2021/07/16 00:34:29;;;;;;;3.67;2.50;;;16.60;99.90;;;;;;5035607;28;20025;-81
2021/07/16 00:36:55;;;;;;;3.70;2.47;;;16.60;99.90;;;;;;5035798;28;20035;-81
2021/07/16 00:39:21;;;;;;;2.88;2.10;;;16.60;99.90;;;;;;5035487;28;20045;-80
2021/07/16 00:41:47;;;;;;;3.88;2.28;;;16.60;99.90;;;;;;5035334;28;20499;-80
2021/07/16 00:44:12;;;;;;;3.65;2.15;;;16.50;99.90;;;;;;5035460;28;20108;-82
2021/07/16 00:46:38;;;;;;;3.85;2.13;;;16.60;99.90;;;;;;5035810;28;20031;-82
2021/07/16 00:49:04;;;;;;;3.65;2.63;;;16.60;99.90;;;;;;5035665;28;20396;-82
2021/07/16 00:51:30;;;;;;;7.97;2.45;;;16.60;99.90;;;;;;5053142;28;20036;-82
2021/07/16 00:53:55;;;;;;;5.88;2.90;;;16.60;99.90;;;;;;5035273;28;20067;-81
2021/07/16 00:56:22;;;;;;;3.20;2.20;;;16.50;99.90;;;;;;5035449;28;20476;-82
2021/07/16 00:58:48;;;;;;;4.40;2.30;;;16.50;99.90;;;;;;5039180;28;20043;-82
2021/07/16 01:01:14;;;;;;;4.70;2.80;;;16.50;99.90;;;;;;5038829;28;20032;-82
2021/07/16 01:03:39;;;;;;;3.20;2.53;;;16.40;99.90;;;;;;5038842;28;20025;-81
2021/07/16 01:06:05;;;;;;;4.03;2.40;;;16.40;99.90;;;;;;5038935;28;20121;-82
2021/07/16 01:08:31;;;;;;;3.80;1.92;;;16.40;99.90;;;;;;5039067;28;20029;-84
2021/07/16 01:10:57;;;;;;;4.20;2.28;;;16.40;99.90;;;;;;5038901;28;20534;-82
2021/07/16 01:13:23;;;;;;;5.28;2.42;;;16.30;99.90;;;;;;5038836;28;20032;-83
2021/07/16 01:15:49;;;;;;;5.00;2.42;;;16.30;99.90;;;;;;5038854;28;20066;-81
2021/07/16 01:18:15;;;;;;;2.97;2.30;;;16.30;99.90;;;;;;5038712;28;20025;-82
2021/07/16 01:20:40;;;;;;;3.55;2.13;;;16.30;99.90;;;;;;5038393;28;20426;-83
2021/07/16 01:23:12;;;;;;;4.15;2.42;;;16.20;99.90;;;;;;5038442;28;20044;-83
2021/07/16 01:25:37;;;;;;;4.25;2.80;;;16.20;99.90;;;;;;5038420;28;20468;-81
2021/07/16 01:28:03;;;;;;;4.80;2.85;;;16.20;99.90;;;;;;5038506;28;20029;-84
2021/07/16 01:30:33;;;;;;;4.65;2.75;;;16.10;99.90;;;;;;5038420;28;20021;-83
2021/07/16 01:33:01;;;;;;;2.97;2.25;;;16.10;99.90;;;;;;5038362;28;20029;-81
2021/07/16 01:35:27;;;;;;;4.10;2.70;;;16.10;99.90;;;;;;5038089;28;20025;-82
2021/07/16 01:37:53;;;;;;;4.35;2.40;;;16.10;99.90;;;;;;5034932;28;20041;-82
2021/07/16 01:40:22;;;;;;;3.67;2.47;;;16.10;99.90;;;;;;5034888;28;20036;-83
2021/07/16 01:42:50;;;;;;;6.43;2.85;;;16.10;99.90;;;;;;5034620;28;20485;-83
2021/07/16 01:45:19;;;;;;;3.80;2.70;;;16.00;99.90;;;;;;5034962;28;20029;-83
2021/07/16 01:47:58;;;;;;;5.63;2.50;;;16.10;99.90;;;;;;5035318;28;20037;-83
2021/07/16 01:50:25;;;;;;;8.77;2.80;;;16.00;99.90;;;;;;5028718;28;20025;-82
2021/07/16 01:52:51;;;;;;;6.22;2.55;;;16.00;99.90;;;;;;5035909;28;20025;-82
2021/07/16 01:55:18;;;;;;;4.03;2.35;;;16.00;99.90;;;;;;5034807;28;20373;-82
2021/07/16 01:57:49;;;;;;;4.60;2.40;;;16.00;99.90;;;;;;5034554;28;20033;-82
2021/07/16 02:00:19;;;;;;;4.80;2.55;;;15.90;99.90;;;;;;5034141;28;20028;-82
2021/07/16 02:02:50;;;;;;;4.68;2.80;;;15.90;99.90;;;;;;5035564;28;20384;-82
2021/07/16 02:05:17;;;;;;;4.32;2.78;;;15.90;99.90;;;;;;5034323;28;20495;-81
2021/07/16 02:07:45;;;;;;;9.07;3.05;;;15.90;99.90;;;;;;5033878;28;20029;-82
2021/07/16 02:10:11;;;;;;;3.30;2.80;;;16.00;99.90;;;;;;5034459;28;20022;-83
2021/07/16 02:12:36;;;;;;;5.65;3.05;;;15.90;99.90;;;;;;5034332;28;20026;-81
2021/07/16 02:15:10;;;;;;;4.60;2.85;;;15.90;99.90;;;;;;5034391;28;20028;-82
2021/07/16 02:17:36;;;;;;;5.80;2.90;;;15.90;99.90;;;;;;5028205;28;20021;-82
2021/07/16 02:20:02;;;;;;;4.93;2.95;;;15.80;99.90;;;;;;5034441;28;20039;-82
2021/07/16 02:22:27;;;;;;;6.57;2.70;;;15.80;99.90;;;;;;5033968;28;20037;-87
2021/07/16 02:24:53;;;;;;;5.00;2.88;;;15.70;99.90;;;;;;5035312;28;20419;-83
2021/07/16 02:27:19;;;;;;;7.25;3.10;;;15.70;99.90;;;;;;5034169;28;20057;-86
2021/07/16 02:29:44;;;;;;;6.25;3.15;;;15.80;99.90;;;;;;5034306;28;20053;-86
2021/07/16 02:32:10;;;;;;;4.25;2.88;;;15.80;99.90;;;;;;5034144;28;20487;-87
2021/07/16 02:34:36;;;;;;;4.22;3.10;;;15.80;99.90;;;;;;5034036;28;20049;-84
2021/07/16 02:37:01;;;;;;;6.65;3.40;;;15.70;99.90;;;;;;5035466;28;20038;-82
2021/07/16 02:39:27;;;;;;;6.40;2.88;;;15.80;99.90;;;;;;5034106;28;20041;-85
2021/07/16 02:41:53;;;;;;;4.60;2.72;;;15.80;99.90;;;;;;5035110;28;20037;-86
2021/07/16 02:44:18;;;;;;;8.07;2.88;;;15.80;99.90;;;;;;5034040;28;20428;-84
2021/07/16 02:46:44;;;;;;;5.00;2.53;;;15.80;99.90;;;;;;5034160;28;20055;-84
2021/07/16 02:49:10;;;;;;;7.38;3.30;;;15.70;99.90;;;;;;5034038;28;20047;-88
2021/07/16 02:51:37;;;;;;;5.72;2.85;;;15.70;99.90;;;;;;5035116;28;20056;-84
2021/07/16 02:54:04;;;;;;;3.65;2.80;;;15.60;99.90;;;;;;5033868;28;20043;-85
2021/07/16 02:56:29;;;;;;;5.72;2.42;;;15.60;99.90;;;;;;5033811;28;20478;-86
2021/07/16 02:58:55;;;;;;;4.45;2.75;;;15.70;99.90;;;;;;5033916;28;20025;-88
2021/07/16 03:01:21;;;;;;;4.22;2.72;;;15.70;99.90;;;;;;5034877;28;20025;-84
2021/07/16 03:03:46;;;;;;;5.40;2.80;;;15.70;99.90;;;;;;5033701;28;20057;-82
2021/07/16 03:06:12;;;;;;;7.63;2.90;;;15.70;99.90;;;;;;5032517;28;20022;-89
2021/07/16 03:08:38;;;;;;;5.53;3.00;;;15.60;99.90;;;;;;5033887;28;20835;-88
2021/07/16 03:11:03;;;;;;;3.38;2.33;;;15.60;99.90;;;;;;5033686;28;20021;-85
2021/07/16 03:13:29;;;;;;;3.42;2.50;;;15.60;99.90;;;;;;5034600;28;20032;-87
2021/07/16 03:15:55;;;;;;;6.60;3.05;;;15.60;99.90;;;;;;5033677;28;20084;-85
2021/07/16 03:18:21;;;;;;;8.65;2.90;;;15.60;99.90;;;;;;5034054;28;20037;-87
2021/07/16 03:20:47;;;;;;;6.82;2.90;;;15.60;99.90;;;;;;5032829;28;20021;-87
2021/07/16 03:23:15;;;;;;;5.30;2.63;;;15.60;99.90;;;;;;5033478;28;20120;-87
2021/07/16 03:25:41;;;;;;;7.78;3.25;;;15.70;99.90;;;;;;5033737;28;20026;-86
2021/07/16 03:28:08;;;;;;;4.95;3.03;;;15.60;99.90;;;;;;5033366;28;20033;-88
2021/07/16 03:30:34;;;;;;;5.45;3.17;;;15.60;99.90;;;;;;5034583;28;20030;-85
2021/07/16 03:33:01;;;;;;;4.32;3.20;;;15.70;99.90;;;;;;5034332;28;20144;-87
2021/07/16 03:35:28;;;;;;;4.13;2.95;;;15.60;99.90;;;;;;5033648;28;20056;-89
2021/07/16 03:37:54;;;;;;;6.70;3.10;;;15.50;99.90;;;;;;5032978;28;20052;-89
2021/07/16 03:40:23;;;;;;;6.57;3.22;;;15.60;99.90;;;;;;5033204;28;20029;-85
2021/07/16 03:42:50;;;;;;;6.68;2.72;;;15.60;99.90;;;;;;5032958;28;20038;-90
2021/07/16 03:45:18;;;;;;;5.35;2.70;;;15.60;99.90;;;;;;5033214;28;20030;-85
2021/07/16 03:47:45;;;;;;;20.88;13.30;;;15.60;99.90;;;;;;5033275;28;20021;-89
2021/07/16 03:50:13;;;;;;;8.32;5.90;;;17.50;99.90;;;;;;5033139;28;20064;-88
2021/07/16 03:52:40;;;;;;;6.97;3.45;;;18.50;99.90;;;;;;5033028;28;20021;-90
2021/07/16 03:55:08;;;;;;;5.82;3.10;;;18.80;99.90;;;;;;5033192;28;20381;-86
2021/07/16 03:57:35;;;;;;;4.43;2.80;;;19.10;99.90;;;;;;5032601;28;20550;-80
2021/07/16 04:00:07;;;;;;;6.43;2.63;;;19.20;99.90;;;;;;5032009;28;20107;-85
2021/07/16 04:02:32;;;;;;;4.70;2.75;;;19.00;99.90;;;;;;5038043;28;20038;-80
2021/07/16 04:04:58;;;;;;;6.82;4.28;;;18.90;99.90;;;;;;5032882;28;20032;-84
2021/07/16 04:07:33;;;;;;;6.45;3.83;;;19.10;99.90;;;;;;5033079;28;20037;-81
2021/07/16 04:09:59;;;;;;;6.47;4.18;;;19.10;99.90;;;;;;5032839;28;20025;-80
2021/07/16 04:12:24;;;;;;;9.60;3.25;;;19.00;99.90;;;;;;5035080;28;20083;-79
2021/07/16 04:14:53;;;;;;;5.95;2.45;;;19.20;99.90;;;;;;5031824;28;20025;-89
2021/07/16 04:17:23;;;;;;;2.55;2.10;;;19.50;99.90;;;;;;5032546;28;20056;-88
2021/07/16 04:19:50;;;;;;;6.47;2.58;;;19.40;99.90;;;;;;5032636;28;20045;-84
2021/07/16 04:22:18;;;;;;;5.25;2.75;;;19.50;99.90;;;;;;5032387;28;20033;-87
2021/07/16 04:24:45;;;;;;;4.95;2.35;;;19.10;99.90;;;;;;5032436;28;20026;-86
2021/07/16 04:27:12;;;;;;;4.13;2.35;;;18.90;99.90;;;;;;5032538;28;20022;-87
2021/07/16 04:29:39;;;;;;;6.20;2.60;;;18.90;99.90;;;;;;5033127;28;20100;-85
2021/07/16 04:32:06;;;;;;;3.85;2.40;;;18.60;99.90;;;;;;5035035;28;20052;-85
2021/07/16 04:34:33;;;;;;;6.70;2.50;;;18.80;99.90;;;;;;5036182;28;20033;-85
2021/07/16 04:37:00;;;;;;;5.72;3.20;;;18.90;99.90;;;;;;5036158;28;20029;-85
2021/07/16 04:39:26;;;;;;;4.55;2.90;;;19.00;99.90;;;;;;5035915;28;20404;-83
2021/07/16 04:41:52;;;;;;;9.80;3.38;;;19.00;99.90;;;;;;5035860;28;20128;-83
2021/07/16 04:44:18;;;;;;;7.07;3.58;;;18.80;99.90;;;;;;5036030;28;20025;-84
2021/07/16 04:46:44;;;;;;;6.57;2.60;;;18.80;99.90;;;;;;5037112;28;20473;-85
2021/07/16 04:49:10;;;;;;;5.18;2.92;;;18.70;99.90;;;;;;5035047;28;20059;-85
2021/07/16 04:51:36;;;;;;;7.90;2.78;;;18.70;99.90;;;;;;5034557;28;20027;-83
2021/07/16 04:54:03;;;;;;;7.55;3.20;;;18.90;99.90;;;;;;5036151;28;20037;-79
2021/07/16 04:56:30;;;;;;;3.42;2.88;;;19.10;99.90;;;;;;5034930;28;20087;-82
2021/07/16 04:58:55;;;;;;;5.00;2.88;;;19.20;99.90;;;;;;5034644;28;20029;-83
2021/07/16 05:01:24;;;;;;;5.22;2.67;;;19.20;99.90;;;;;;5034633;28;20029;-80
2021/07/16 05:03:51;;;;;;;5.22;2.58;;;18.90;99.90;;;;;;5034774;28;20026;-80
2021/07/16 05:06:18;;;;;;;4.28;2.83;;;18.90;99.90;;;;;;5034932;28;20026;-78
2021/07/16 05:08:45;;;;;;;7.20;2.80;;;19.10;99.90;;;;;;5035879;28;20024;-79
2021/07/16 05:11:10;;;;;;;4.65;2.20;;;19.10;99.90;;;;;;5034959;28;20029;-85
2021/07/16 05:13:37;;;;;;;6.57;2.38;;;19.30;99.90;;;;;;5034945;28;20052;-79
2021/07/16 05:16:07;;;;;;;5.65;4.05;;;19.40;99.90;;;;;;5035207;28;20032;-79
2021/07/16 05:18:33;;;;;;;7.65;3.17;;;19.30;99.90;;;;;;5034427;28;20034;-81
2021/07/16 05:20:59;;;;;;;6.63;3.40;;;19.40;99.90;;;;;;5035409;28;20026;-78
2021/07/16 05:23:26;;;;;;;10.63;4.75;;;19.20;99.90;;;;;;5034160;28;20067;-81
2021/07/16 05:25:52;;;;;;;11.02;3.95;;;19.10;99.90;;;;;;5034162;28;20022;-79
2021/07/16 05:28:18;;;;;;;11.52;3.30;;;18.90;99.90;;;;;;5033978;28;20033;-80
2021/07/16 05:30:44;;;;;;;6.35;2.55;;;18.80;99.90;;;;;;5034169;28;20044;-80
2021/07/16 05:33:12;;;;;;;6.93;2.50;;;18.80;99.90;;;;;;5035290;28;20033;-82
2021/07/16 05:35:38;;;;;;;7.18;2.58;;;18.80;99.90;;;;;;5034291;28;20488;-81
2021/07/16 05:38:04;;;;;;;5.28;2.70;;;18.80;99.90;;;;;;5033825;28;20049;-81
2021/07/16 05:40:31;;;;;;;8.88;3.47;;;18.80;99.90;;;;;;5033931;28;20021;-82
2021/07/16 05:42:57;;;;;;;8.82;3.95;;;18.70;99.90;;;;;;5034578;28;20030;-80
2021/07/16 05:45:23;;;;;;;6.47;3.13;;;18.80;99.90;;;;;;5034341;28;20033;-82
2021/07/16 05:47:48;;;;;;;6.18;2.60;;;18.90;99.90;;;;;;5034177;28;20021;-81
2021/07/16 05:50:14;;;;;;;6.40;2.70;;;18.90;99.90;;;;;;5035368;28;20018;-78
2021/07/16 05:52:40;;;;;;;5.53;2.55;;;18.90;99.90;;;;;;5033542;28;20393;-84
2021/07/16 05:55:06;;;;;;;5.30;2.78;;;18.80;99.90;;;;;;5033706;28;20107;-84
2021/07/16 05:57:32;;;;;;;5.88;2.53;;;18.80;99.90;;;;;;5033489;28;20025;-81
2021/07/16 05:59:58;;;;;;;5.82;3.22;;;19.00;99.90;;;;;;5035286;28;20032;-85
2021/07/16 06:02:24;;;;;;;9.35;3.17;;;19.40;99.90;;;;;;5032913;28;20038;-81
2021/07/16 06:04:50;;;;;;;8.70;3.38;;;19.30;99.90;;;;;;5033630;28;20243;-78
2021/07/16 06:07:16;;;;;;;4.32;2.70;;;19.30;99.90;;;;;;5033807;28;20029;-78
2021/07/16 06:09:41;;;;;;;10.73;3.28;;;19.20;99.90;;;;;;5033721;28;20519;-79
2021/07/16 06:12:08;;;;;;;5.60;2.72;;;19.30;99.90;;;;;;5034775;28;20492;-80
2021/07/16 06:14:34;;;;;;;4.45;2.67;;;19.30;99.90;;;;;;5035168;28;20100;-80
2021/07/16 06:17:00;;;;;;;9.65;3.25;;;19.30;99.90;;;;;;5034339;28;20140;-80
2021/07/16 06:19:26;;;;;;;4.70;2.97;;;19.30;99.90;;;;;;5034637;28;20071;-80
2021/07/16 06:21:52;;;;;;;4.78;2.83;;;19.40;99.90;;;;;;5033327;28;20440;-80
2021/07/16 06:24:17;;;;;;;5.53;3.10;;;19.40;99.90;;;;;;5034138;28;20032;-81
2021/07/16 06:26:43;;;;;;;4.93;3.17;;;19.50;99.90;;;;;;5032727;28;20400;-81
2021/07/16 06:29:09;;;;;;;7.28;3.17;;;19.60;99.90;;;;;;5034236;28;20029;-82
2021/07/16 06:31:36;;;;;;;4.07;2.72;;;20.40;99.90;;;;;;5033757;28;20033;-83
2021/07/16 06:34:03;;;;;;;6.78;2.95;;;20.80;99.90;;;;;;5033819;28;20021;-84
2021/07/16 06:36:29;;;;;;;11.95;3.65;;;20.80;99.90;;;;;;5033580;28;20071;-82
2021/07/16 06:38:54;;;;;;;8.23;3.38;;;20.70;99.90;;;;;;5046920;28;20041;-83
2021/07/16 06:41:20;;;;;;;9.70;3.08;;;20.60;99.90;;;;;;5036808;28;20037;-84
2021/07/16 06:43:46;;;;;;;7.22;3.10;;;20.50;99.90;;;;;;5036999;28;20029;-83
2021/07/16 06:46:12;;;;;;;6.50;3.15;;;20.70;99.90;;;;;;5037093;28;20018;-80
2021/07/16 06:48:42;;;;;;;12.98;8.13;;;20.70;99.90;;;;;;5036964;28;20056;-81
2021/07/16 06:51:10;;;;;;;64.55;36.90;;;20.80;99.90;;;;;;5036574;28;20480;-86
2021/07/16 06:53:36;;;;;;;20.08;13.40;;;20.80;99.90;;;;;;5035118;28;20474;-81
2021/07/16 06:56:02;;;;;;;12.60;6.93;;;20.80;99.90;;;;;;5052610;28;20037;-78
2021/07/16 06:58:27;;;;;;;5.65;3.85;;;20.90;99.90;;;;;;5053509;28;20025;-77
2021/07/16 07:00:54;;;;;;;3.72;3.25;;;21.10;99.90;;;;;;5036681;28;20025;-79
2021/07/16 07:03:20;;;;;;;7.68;3.33;;;21.20;99.90;;;;;;5036984;28;20040;-83
2021/07/16 07:05:46;;;;;;;3.92;2.55;;;21.50;99.90;;;;;;5037298;28;20112;-83
2021/07/16 07:08:11;;;;;;;5.10;2.33;;;21.60;99.90;;;;;;5037173;28;20029;-84
2021/07/16 07:10:37;;;;;;;5.78;2.70;;;21.90;99.90;;;;;;5036925;28;20025;-81
2021/07/16 07:13:04;;;;;;;7.35;2.88;;;22.00;99.90;;;;;;5036688;28;20427;-83
2021/07/16 07:15:32;;;;;;;5.35;2.35;;;22.10;99.90;;;;;;5035876;28;20051;-82
2021/07/16 07:17:57;;;;;;;6.18;2.67;;;22.30;99.90;;;;;;5036781;28;20021;-82
2021/07/16 07:20:33;;;;;;;10.73;2.58;;;22.60;99.90;;;;;;5037435;28;20116;-85
2021/07/16 07:23:00;;;;;;;4.85;2.40;;;22.70;99.90;;;;;;5055252;28;20029;-86
2021/07/16 07:25:28;;;;;;;4.78;2.85;;;22.80;99.90;;;;;;5055177;28;20059;-84
2021/07/16 07:27:53;;;;;;;5.00;2.40;;;23.00;99.90;;;;;;5036839;28;20086;-82
2021/07/16 07:30:20;;;;;;;6.03;4.20;;;23.00;99.90;;;;;;5036648;28;20477;-84
2021/07/16 07:32:46;;;;;;;11.70;7.50;;;22.90;98.60;;;;;;5036546;28;20499;-83
2021/07/16 07:35:13;;;;;;;6.03;4.78;;;22.90;98.10;;;;;;5036373;28;20025;-80
2021/07/16 07:37:39;;;;;;;9.60;7.00;;;22.90;98.60;;;;;;5035121;28;20024;-86
2021/07/16 07:40:10;;;;;;;10.35;6.88;;;23.00;97.70;;;;;;5019646;28;20037;-77
2021/07/16 07:42:36;;;;;;;6.25;4.30;;;23.10;97.90;;;;;;5015639;28;20063;-80
2021/07/16 07:45:04;;;;;;;6.15;2.55;;;23.10;97.80;;;;;;5016361;28;20108;-80
2021/07/16 07:47:32;;;;;;;3.10;1.80;;;23.20;97.10;;;;;;5016345;28;20025;-81
2021/07/16 07:50:03;;;;;;;3.72;1.63;;;23.20;97.30;;;;;;5016619;28;20029;-80
2021/07/16 07:52:29;;;;;;;2.38;1.60;;;23.30;97.20;;;;;;5016288;28;20025;-79
2021/07/16 07:54:55;;;;;;;4.15;1.70;;;23.20;97.40;;;;;;5016317;28;20037;-80
2021/07/16 07:57:21;;;;;;;4.40;1.70;;;23.20;97.70;;;;;;5016462;28;20465;-80
2021/07/16 07:59:47;;;;;;;1.67;1.55;;;23.30;97.10;;;;;;5016319;28;20025;-80
2021/07/16 08:02:13;;;;;;;4.38;1.45;;;23.30;97.00;;;;;;5016285;28;20159;-81
2021/07/16 08:04:38;;;;;;;5.25;4.03;;;23.30;96.90;;;;;;5016512;28;20053;-80
2021/07/16 08:07:05;;;;;;;4.30;2.50;;;23.40;97.80;;;;;;5019440;28;20103;-80
2021/07/16 08:09:31;;;;;;;3.65;2.00;;;23.40;98.00;;;;;;5020493;28;20017;-80
2021/07/16 08:11:58;;;;;;;3.95;1.88;;;23.50;97.90;;;;;;5020420;28;20048;-81
2021/07/16 08:14:23;;;;;;;3.88;1.42;;;23.50;98.00;;;;;;5020603;28;20048;-80
2021/07/16 08:16:49;;;;;;;5.22;2.03;;;23.50;97.60;;;;;;5020267;28;20025;-80
2021/07/16 08:19:18;;;;;;;2.78;1.48;;;23.60;98.30;;;;;;5019137;28;20026;-83
2021/07/16 08:21:46;;;;;;;2.58;1.45;;;23.60;97.10;;;;;;5019798;28;20056;-81
2021/07/16 08:24:12;;;;;;;2.50;1.42;;;23.50;97.60;;;;;;5020288;28;20036;-82
2021/07/16 08:26:38;;;;;;;3.85;1.70;;;23.50;97.30;;;;;;5019596;28;20029;-81
2021/07/16 08:29:04;;;;;;;7.03;4.20;;;23.50;96.90;;;;;;5020030;28;20030;-81
2021/07/16 08:31:29;;;;;;;12.98;7.00;;;23.60;96.40;;;;;;5019828;28;20464;-81
2021/07/16 08:33:55;;;;;;;7.00;3.75;;;23.60;95.40;;;;;;5019890;28;20544;-81
2021/07/16 08:36:21;;;;;;;3.00;1.60;;;23.80;93.60;;;;;;5019721;28;20029;-80
2021/07/16 08:38:46;;;;;;;2.80;1.23;;;23.90;91.80;;;;;;5016417;28;20046;-82
2021/07/16 08:41:13;;;;;;;2.60;2.35;;;24.20;91.30;;;;;;5016456;28;20033;-82
2021/07/16 08:43:41;;;;;;;4.10;1.75;;;24.20;91.40;;;;;;5017727;28;20583;-81
2021/07/16 08:46:09;;;;;;;4.97;1.38;;;24.40;90.40;;;;;;5016301;28;20033;-79
2021/07/16 08:48:36;;;;;;;3.25;1.50;;;24.40;88.70;;;;;;5016251;28;20070;-78
2021/07/16 08:51:02;;;;;;;2.20;1.35;;;24.50;88.10;;;;;;5015952;28;20018;-78
2021/07/16 08:53:29;;;;;;;2.63;1.98;;;24.60;87.20;;;;;;5016203;28;20096;-79
2021/07/16 08:55:55;;;;;;;2.08;1.42;;;24.70;87.80;;;;;;5016140;28;20034;-80
2021/07/16 08:58:21;;;;;;;4.50;1.67;;;24.80;87.00;;;;;;5016182;28;20037;-79
2021/07/16 09:00:47;;;;;;;1.60;1.20;;;24.90;87.00;;;;;;5015881;28;20022;-79
2021/07/16 09:03:13;;;;;;;3.55;1.20;;;25.00;87.50;;;;;;5015751;28;20037;-78
2021/07/16 09:05:42;;;;;;;2.08;1.40;;;25.20;84.50;;;;;;5014984;28;20025;-82
2021/07/16 09:08:17;;;;;;;6.65;1.23;;;25.20;84.10;;;;;;5015913;28;20033;-80
2021/07/16 09:10:49;;;;;;;2.15;1.10;;;25.30;82.30;;;;;;5015977;28;20420;-84
2021/07/16 09:13:16;;;;;;;1.13;0.90;;;25.30;80.40;;;;;;5016204;28;20049;-85
2021/07/16 09:15:59;;;;;;;3.13;1.00;;;25.40;81.00;;;;;;5017259;28;20044;-82
2021/07/16 09:18:28;;;;;;;2.03;1.10;;;25.60;81.20;;;;;;5014600;28;20433;-78
2021/07/16 09:21:02;;;;;;;3.13;1.10;;;25.80;80.50;;;;;;5015365;28;20030;-79
2021/07/16 09:23:42;;;;;;;2.30;1.05;;;25.80;79.90;;;;;;5015680;28;20036;-79
2021/07/16 09:26:09;;;;;;;1.75;1.08;;;25.90;77.20;;;;;;5015627;28;20022;-77
2021/07/16 09:28:37;;;;;;;2.30;1.00;;;25.80;76.20;;;;;;5015604;28;20033;-79
2021/07/16 09:31:29;;;;;;;4.03;1.15;;;25.80;77.60;;;;;;5015497;28;20026;-78
2021/07/16 09:34:01;;;;;;;2.85;0.93;;;25.80;77.00;;;;;;5014774;28;20030;-78
2021/07/16 09:36:33;;;;;;;2.35;1.50;;;25.80;75.60;;;;;;5016086;28;20025;-79
2021/07/16 09:39:24;;;;;;;2.03;1.00;;;25.80;74.30;;;;;;5040966;28;20052;-77
2021/07/16 09:41:51;;;;;;;1.30;0.70;;;25.80;74.10;;;;;;5038081;28;20087;-81
2021/07/16 09:44:38;;;;;;;1.67;1.02;;;25.90;74.40;;;;;;5056047;28;20021;-78
2021/07/16 09:47:18;;;;;;;2.42;1.10;;;26.20;75.10;;;;;;5038124;28;20048;-78
2021/07/16 09:49:49;;;;;;;2.00;1.08;;;26.30;73.50;;;;;;5037918;28;20115;-79
2021/07/16 09:52:20;;;;;;;1.30;0.95;;;26.30;73.90;;;;;;5037832;28;20017;-78
2021/07/16 09:55:09;;;;;;;2.35;1.23;;;26.40;72.20;;;;;;5055507;28;20029;-77
2021/07/16 09:57:48;;;;;;;2.47;1.42;;;26.40;72.80;;;;;;5037325;28;20021;-76
2021/07/16 10:00:19;;;;;;;1.60;1.00;;;26.20;70.80;;;;;;5037300;28;20028;-79
2021/07/16 10:02:49;;;;;;;1.60;1.00;;;26.10;72.80;;;;;;5036352;28;20392;-76
2021/07/16 10:05:15;;;;;;;2.47;1.00;;;26.20;72.60;;;;;;5054686;28;20025;-79
2021/07/16 10:07:42;;;;;;;2.67;1.10;;;26.40;73.30;;;;;;5054447;28;20082;-76
2021/07/16 10:10:19;;;;;;;1.83;1.10;;;26.60;71.70;;;;;;5054859;28;20363;-76
2021/07/16 10:12:47;;;;;;;2.05;1.00;;;26.80;73.10;;;;;;5037244;28;20029;-76
2021/07/16 10:15:14;;;;;;;2.95;1.65;;;26.90;70.50;;;;;;5037553;28;20021;-77
2021/07/16 10:17:41;;;;;;;4.07;1.80;;;27.20;69.50;;;;;;5037537;28;20025;-78
2021/07/16 10:20:09;;;;;;;1.90;1.17;;;27.40;69.10;;;;;;5036141;28;20062;-78
2021/07/16 10:22:37;;;;;;;1.77;1.15;;;27.70;71.10;;;;;;5036564;28;20045;-77
2021/07/16 10:25:04;;;;;;;6.57;1.40;;;27.60;66.40;;;;;;5037305;28;20484;-78
2021/07/16 10:27:29;;;;;;;3.15;1.05;;;27.50;66.10;;;;;;5037283;28;20119;-78
2021/07/16 10:30:07;;;;;;;1.92;1.00;;;27.40;68.40;;;;;;5054661;28;20096;-79
2021/07/16 10:32:44;;;;;;;3.10;1.00;;;27.20;67.30;;;;;;5037277;28;20025;-77
2021/07/16 10:35:29;;;;;;;2.20;1.17;;;27.20;66.30;;;;;;5036849;28;20021;-79
2021/07/16 10:38:00;;;;;;;2.47;1.00;;;27.40;66.30;;;;;;5036835;28;20040;-79
2021/07/16 10:40:46;;;;;;;1.70;1.00;;;27.50;65.90;;;;;;5037143;28;20481;-79
2021/07/16 10:43:27;;;;;;;2.83;1.00;;;27.70;65.10;;;;;;5036961;28;20032;-79
2021/07/16 10:45:57;;;;;;;2.67;1.30;;;27.90;64.40;;;;;;5037086;28;20032;-79
2021/07/16 10:48:36;;;;;;;1.83;1.08;;;27.70;63.10;;;;;;5036804;28;20112;-78
2021/07/16 10:51:04;;;;;;;2.78;0.90;;;27.50;61.50;;;;;;5036693;28;20025;-76
2021/07/16 10:53:30;;;;;;;3.83;1.20;;;27.50;61.90;;;;;;5036447;28;20063;-78
2021/07/16 10:55:55;;;;;;;2.10;1.20;;;27.50;61.50;;;;;;5035865;28;20017;-78
2021/07/16 10:58:22;;;;;;;2.90;0.75;;;27.70;62.40;;;;;;5036433;28;20107;-77
2021/07/16 11:01:06;;;;;;;2.35;0.90;;;27.80;60.10;;;;;;5036238;28;20116;-77
2021/07/16 11:03:49;;;;;;;3.15;1.00;;;27.80;60.40;;;;;;5036075;28;20098;-78
2021/07/16 11:06:17;;;;;;;2.28;1.00;;;27.90;59.20;;;;;;5035916;28;20025;-76
2021/07/16 11:08:43;;;;;;;2.60;1.13;;;27.90;60.30;;;;;;5053847;28;20033;-77
2021/07/16 11:11:16;;;;;;;3.42;1.05;;;27.90;58.90;;;;;;5035520;28;20892;-78
2021/07/16 11:13:59;;;;;;;2.50;0.95;;;27.80;57.90;;;;;;5035653;28;20028;-78
2021/07/16 11:16:26;;;;;;;1.90;0.80;;;27.90;57.90;;;;;;5053963;28;20027;-79
2021/07/16 11:18:52;;;;;;;1.75;1.10;;;28.00;57.30;;;;;;5036202;28;20021;-79
2021/07/16 11:21:46;;;;;;;3.42;0.90;;;28.10;57.70;;;;;;5053800;28;20027;-79
2021/07/16 11:26:53;;;;;;;4.60;0.82;;;28.50;58.40;;;;;;5053316;28;20028;-79
2021/07/16 11:29:24;;;;;;;2.47;0.80;;;28.60;55.10;;;;;;5053553;28;20044;-79
2021/07/16 11:32:20;;;;;;;1.92;0.73;;;28.80;55.30;;;;;;5035300;28;20052;-78
2021/07/16 11:34:52;;;;;;;3.38;0.85;;;28.90;53.50;;;;;;5034735;28;20389;-79
2021/07/16 11:37:22;;;;;;;3.65;0.80;;;28.80;51.80;;;;;;5053032;28;20033;-77
2021/07/16 11:39:53;;;;;;;1.35;0.60;;;28.80;53.70;;;;;;5034638;28;20049;-79
2021/07/16 11:42:18;;;;;;;1.55;0.90;;;28.90;52.10;;;;;;5034203;28;20033;-79
2021/07/16 11:44:44;;;;;;;1.73;0.63;;;29.10;54.30;;;;;;5052438;28;20372;-79
2021/07/16 11:47:17;;;;;;;3.28;0.70;;;29.30;54.90;;;;;;5034358;28;20025;-79
2021/07/16 11:49:47;;;;;;;2.55;0.95;;;29.10;53.80;;;;;;5052213;28;20024;-78
2021/07/16 11:52:18;;;;;;;1.55;0.80;;;28.90;54.50;;;;;;5034198;28;20033;-79
2021/07/16 11:54:44;;;;;;;1.42;0.68;;;29.00;56.20;;;;;;5034439;28;20021;-78
2021/07/16 11:57:15;;;;;;;1.80;0.80;;;29.10;54.80;;;;;;5034280;28;20116;-79
2021/07/16 11:59:50;;;;;;;1.92;0.90;;;29.20;54.70;;;;;;5034132;28;20021;-78
2021/07/16 12:02:18;;;;;;;3.25;0.75;;;29.20;54.70;;;;;;5034100;28;20043;-79
2021/07/16 12:04:45;;;;;;;0.70;0.63;;;29.20;56.10;;;;;;5052204;28;20022;-78
2021/07/16 12:07:11;;;;;;;1.02;0.75;;;29.30;53.10;;;;;;5034350;28;20052;-78
2021/07/16 12:09:37;;;;;;;1.15;0.70;;;29.10;52.50;;;;;;5034217;28;20051;-78
2021/07/16 12:12:08;;;;;;;1.33;0.90;;;29.20;53.70;;;;;;5034256;28;20025;-79
2021/07/16 12:15:07;;;;;;;2.88;0.90;;;29.20;53.40;;;;;;5051925;28;20051;-79
2021/07/16 12:17:38;;;;;;;1.52;0.60;;;29.20;56.00;;;;;;5036936;28;20041;-79
2021/07/16 12:20:09;;;;;;;1.08;0.70;;;29.30;55.10;;;;;;5051688;28;20025;-79
2021/07/16 12:22:39;;;;;;;4.32;0.55;;;29.10;52.80;;;;;;5034014;28;20182;-77
2021/07/16 12:25:07;;;;;;;1.20;0.70;;;29.10;53.70;;;;;;5051943;28;20381;-79
2021/07/16 12:27:32;;;;;;;1.50;0.80;;;28.80;54.50;;;;;;5051990;28;20025;-79
2021/07/16 12:30:00;;;;;;;1.65;0.73;;;28.90;53.90;;;;;;5051817;28;20025;-79
2021/07/16 12:32:33;;;;;;;1.30;0.70;;;29.00;54.40;;;;;;5034002;28;20021;-79
2021/07/16 12:34:59;;;;;;;1.42;0.80;;;29.20;54.40;;;;;;5051806;28;20036;-80
2021/07/16 12:37:36;;;;;;;1.95;0.93;;;29.50;54.10;;;;;;5033744;28;20029;-79
2021/07/16 12:40:06;;;;;;;3.00;0.80;;;29.50;53.50;;;;;;5034067;28;20041;-79
2021/07/16 12:42:35;;;;;;;2.72;0.70;;;29.50;53.90;;;;;;5034124;28;20488;-78
2021/07/16 12:45:08;;;;;;;2.70;0.50;;;29.70;53.00;;;;;;5034837;28;20464;-78
2021/07/16 12:47:47;;;;;;;1.52;0.70;;;29.40;52.50;;;;;;5034790;28;20029;-79
2021/07/16 12:50:16;;;;;;;4.63;0.90;;;29.30;53.10;;;;;;5035264;28;20494;-76
2021/07/16 12:52:42;;;;;;;2.85;0.70;;;29.30;53.40;;;;;;5037177;28;20036;-78